createdAt,value
2022-12-31T00:02:49.984Z,102269.06
2022-12-31T00:05:56.201Z,102261.38
2022-12-31T00:09:05.189Z,102262.47
2022-12-31T00:12:11.059Z,102261.09
2022-12-31T00:15:17.224Z,102266.03
2022-12-31T00:18:23.058Z,102261.38
2022-12-31T00:21:30.617Z,102264.06
2022-12-31T00:24:36.649Z,102257.53
2022-12-31T00:27:42.118Z,102250.81
2022-12-31T00:30:47.551Z,102266.41
2022-12-31T00:33:53.341Z,102257.34
2022-12-31T00:36:58.879Z,102256.13
2022-12-31T00:40:05.167Z,102260.44
2022-12-31T00:43:10.844Z,102259.91
2022-12-31T00:46:17.111Z,102258.16
2022-12-31T00:49:22.959Z,102258.63
2022-12-31T00:52:28.743Z,102258.72
2022-12-31T00:55:34.505Z,102258.16
2022-12-31T00:58:41.276Z,102267.16
2022-12-31T01:01:47.507Z,102266.34
2022-12-31T01:04:52.792Z,102271.66
2022-12-31T01:07:58.433Z,102267.69
2022-12-31T01:11:22.801Z,102282.31
2022-12-31T01:14:28.297Z,102282.31
2022-12-31T01:17:34.946Z,102281.81
2022-12-31T01:20:42.760Z,102286.03
2022-12-31T01:23:48.261Z,102291.50
2022-12-31T01:26:58.146Z,102298.88
2022-12-31T01:30:06.376Z,102308.97
2022-12-31T01:33:12.137Z,102309.44
2022-12-31T01:36:25.604Z,102325.28
2022-12-31T01:39:32.540Z,102325.41
2022-12-31T01:42:38.093Z,102326.47
2022-12-31T01:45:49.845Z,102335.81
2022-12-31T01:49:01.222Z,102333.00
2022-12-31T01:52:16.479Z,102338.47
2022-12-31T01:55:24.251Z,102329.38
2022-12-31T01:58:46.594Z,102316.69
2022-12-31T02:01:55.248Z,102325.81
2022-12-31T02:05:02.944Z,102336.06
2022-12-31T02:08:08.961Z,102335.66
2022-12-31T02:11:30.547Z,102333.91
2022-12-31T02:14:40.420Z,102344.53
2022-12-31T02:18:23.752Z,102346.91
2022-12-31T02:21:37.800Z,102353.41
2022-12-31T02:25:12.404Z,102352.78
2022-12-31T02:28:38.436Z,102360.84
2022-12-31T02:31:58.354Z,102359.97
2022-12-31T02:35:17.139Z,102356.09
2022-12-31T02:38:31.534Z,102354.56
2022-12-31T02:41:52.724Z,102347.59
2022-12-31T02:44:58.284Z,102336.69
2022-12-31T02:48:20.621Z,102348.16
2022-12-31T02:51:54.541Z,102339.28
2022-12-31T02:55:26.866Z,102350.72
2022-12-31T02:59:00.804Z,102353.81
2022-12-31T03:02:15.012Z,102357.78
2022-12-31T03:05:24.576Z,102371.63
2022-12-31T03:08:30.604Z,102373.34
2022-12-31T03:11:54.639Z,102392.38
2022-12-31T03:15:00.633Z,102399.47
2022-12-31T03:18:10.865Z,102385.59
2022-12-31T03:21:34.632Z,102385.25
2022-12-31T03:24:58.552Z,102381.84
2022-12-31T03:28:09.890Z,102382.13
2022-12-31T03:31:16.519Z,102374.25
2022-12-31T03:34:22.024Z,102375.59
2022-12-31T03:37:27.565Z,102370.00
2022-12-31T03:40:37.587Z,102374.69
2022-12-31T03:43:42.880Z,102381.44
2022-12-31T03:46:48.662Z,102370.19
2022-12-31T03:49:54.402Z,102358.97
2022-12-31T03:52:59.965Z,102356.97
2022-12-31T03:56:05.995Z,102350.25
2022-12-31T03:59:11.784Z,102353.91
2022-12-31T04:02:19.196Z,102363.19
2022-12-31T04:05:26.517Z,102374.91
2022-12-31T04:08:32.158Z,102374.28
2022-12-31T04:11:37.403Z,102371.25
2022-12-31T04:14:42.420Z,102364.59
2022-12-31T04:17:49.228Z,102375.00
2022-12-31T04:20:54.744Z,102380.50
2022-12-31T04:24:00.396Z,102373.25
2022-12-31T04:27:08.061Z,102375.09
2022-12-31T04:30:14.785Z,102383.19
2022-12-31T04:33:20.646Z,102390.16
2022-12-31T04:36:26.124Z,102390.50
2022-12-31T04:39:32.324Z,102400.94
2022-12-31T04:42:38.201Z,102400.03
2022-12-31T04:45:44.103Z,102406.69
2022-12-31T04:48:49.387Z,102408.09
2022-12-31T04:51:54.531Z,102423.00
2022-12-31T04:54:59.902Z,102423.88
2022-12-31T04:58:05.225Z,102427.38
2022-12-31T05:01:11.251Z,102435.34
2022-12-31T05:04:16.936Z,102438.09
2022-12-31T05:07:22.746Z,102436.19
2022-12-31T05:10:28.455Z,102448.94
2022-12-31T05:13:33.918Z,102458.22
2022-12-31T05:16:39.432Z,102460.22
2022-12-31T05:19:45.086Z,102463.59
2022-12-31T05:22:50.941Z,102471.53
2022-12-31T05:25:57.068Z,102473.19
2022-12-31T05:29:02.624Z,102475.66
2022-12-31T05:32:08.022Z,102483.84
2022-12-31T05:35:13.503Z,102489.78
2022-12-31T05:38:19.040Z,102491.69
2022-12-31T05:41:24.475Z,102493.34
2022-12-31T05:44:30.519Z,102506.94
2022-12-31T05:47:35.362Z,102507.94
2022-12-31T05:50:41.016Z,102500.44
2022-12-31T05:53:47.599Z,102500.44
2022-12-31T05:56:53.076Z,102509.06
2022-12-31T05:59:58.754Z,102497.22
2022-12-31T06:03:04.660Z,102503.72
2022-12-31T06:06:09.893Z,102500.03
2022-12-31T06:09:17.340Z,102508.88
2022-12-31T06:12:22.530Z,102510.19
2022-12-31T06:15:28.131Z,102518.06
2022-12-31T06:18:33.861Z,102521.06
2022-12-31T06:21:40.051Z,102525.50
2022-12-31T06:24:46.007Z,102531.75
2022-12-31T06:27:51.938Z,102533.75
2022-12-31T06:31:05.351Z,102528.38
2022-12-31T06:34:12.858Z,102540.03
2022-12-31T06:37:18.593Z,102540.88
2022-12-31T06:40:24.229Z,102545.59
2022-12-31T06:43:29.855Z,102543.69
2022-12-31T06:46:34.988Z,102538.13
2022-12-31T06:49:41.215Z,102551.16
2022-12-31T06:52:46.120Z,102561.19
2022-12-31T06:55:51.304Z,102567.25
2022-12-31T06:58:57.545Z,102570.19
2022-12-31T07:02:29.967Z,102576.25
2022-12-31T07:05:39.956Z,102582.25
2022-12-31T07:09:01.621Z,102591.13
2022-12-31T07:12:45.371Z,102589.81
2022-12-31T07:16:10.367Z,102592.34
2022-12-31T07:19:36.315Z,102601.19
2022-12-31T07:22:45.170Z,102600.75
2022-12-31T07:26:22.601Z,102614.19
2022-12-31T07:30:01.187Z,102609.19
2022-12-31T07:33:34.000Z,102634.25
2022-12-31T07:37:17.883Z,102629.47
2022-12-31T07:41:05.479Z,102629.56
2022-12-31T07:44:35.713Z,102637.34
2022-12-31T07:47:41.493Z,102635.19
2022-12-31T07:50:47.024Z,102640.31
2022-12-31T07:53:52.871Z,102638.19
2022-12-31T07:56:58.418Z,102651.16
2022-12-31T08:00:15.572Z,102654.09
2022-12-31T08:03:25.750Z,102654.28
2022-12-31T08:06:42.869Z,102668.72
2022-12-31T08:10:04.234Z,102658.72
2022-12-31T08:13:11.813Z,102663.22
2022-12-31T08:16:17.613Z,102666.75
2022-12-31T08:19:32.684Z,102664.47
2022-12-31T08:22:47.220Z,102661.59
2022-12-31T08:26:28.451Z,102663.75
2022-12-31T08:30:09.843Z,102678.59
2022-12-31T08:33:39.991Z,102681.31
2022-12-31T08:37:06.485Z,102684.94
2022-12-31T08:40:24.546Z,102687.47
2022-12-31T08:44:10.923Z,102695.53
2022-12-31T08:47:55.048Z,102698.28
2022-12-31T08:51:03.791Z,102700.16
2022-12-31T08:54:12.630Z,102714.81
2022-12-31T08:57:59.532Z,102700.28
2022-12-31T09:01:07.577Z,102707.84
2022-12-31T09:04:36.280Z,102722.59
2022-12-31T09:08:11.815Z,102710.69
2022-12-31T09:11:28.380Z,102714.38
2022-12-31T09:14:58.305Z,102710.56
2022-12-31T09:18:04.256Z,102710.69
2022-12-31T09:21:11.557Z,102710.06
2022-12-31T09:24:17.077Z,102708.94
2022-12-31T09:27:57.777Z,102713.41
2022-12-31T09:31:15.933Z,102711.00
2022-12-31T09:35:12.503Z,102717.75
2022-12-31T09:38:54.974Z,102725.28
2022-12-31T09:42:31.079Z,102716.16
2022-12-31T09:46:17.606Z,102711.72
2022-12-31T09:49:31.910Z,102718.47
2022-12-31T09:52:56.252Z,102714.38
2022-12-31T09:56:29.397Z,102719.66
2022-12-31T09:59:38.008Z,102720.03
2022-12-31T10:02:52.154Z,102719.88
2022-12-31T10:05:57.718Z,102726.94
2022-12-31T10:09:35.459Z,102728.34
2022-12-31T10:13:09.126Z,102721.28
2022-12-31T10:16:40.678Z,102728.59
2022-12-31T10:19:53.797Z,102725.22
2022-12-31T10:22:59.235Z,102719.47
2022-12-31T10:26:27.183Z,102722.47
2022-12-31T10:30:34.515Z,102720.00
2022-12-31T10:34:00.172Z,102723.31
2022-12-31T10:37:17.883Z,102713.72
2022-12-31T10:40:25.758Z,102706.69
2022-12-31T10:43:52.539Z,102694.50
2022-12-31T10:47:29.066Z,102685.13
2022-12-31T10:51:00.943Z,102677.50
2022-12-31T10:54:24.721Z,102682.38
2022-12-31T10:58:04.041Z,102697.31
2022-12-31T11:01:15.875Z,102694.00
2022-12-31T11:04:47.712Z,102701.13
2022-12-31T11:07:59.128Z,102701.41
2022-12-31T11:11:22.865Z,102696.13
2022-12-31T11:14:52.726Z,102685.13
2022-12-31T11:18:22.873Z,102698.09
2022-12-31T11:21:41.408Z,102702.22
2022-12-31T11:25:13.114Z,102694.38
2022-12-31T11:28:33.493Z,102687.66
2022-12-31T11:31:50.780Z,102697.81
2022-12-31T11:35:33.452Z,102698.09
2022-12-31T11:38:58.924Z,102694.78
2022-12-31T11:42:27.283Z,102694.13
2022-12-31T11:46:04.379Z,102687.88
2022-12-31T11:49:27.753Z,102667.63
2022-12-31T11:52:52.152Z,102676.22
2022-12-31T11:56:17.403Z,102671.53
2022-12-31T11:59:22.823Z,102660.88
2022-12-31T12:02:43.680Z,102655.97
2022-12-31T12:05:49.313Z,102659.31
2022-12-31T12:09:07.359Z,102651.88
2022-12-31T12:12:13.829Z,102636.78
2022-12-31T12:15:27.736Z,102638.97
2022-12-31T12:19:07.050Z,102639.41
2022-12-31T12:22:20.234Z,102629.16
2022-12-31T12:25:28.243Z,102634.66
2022-12-31T12:28:46.513Z,102627.84
2022-12-31T12:32:07.862Z,102638.94
2022-12-31T12:35:15.381Z,102632.34
2022-12-31T12:38:23.440Z,102631.88
2022-12-31T12:41:29.109Z,102633.75
2022-12-31T12:44:35.980Z,102623.88
2022-12-31T12:47:46.682Z,102630.47
2022-12-31T12:50:52.405Z,102635.44
2022-12-31T12:54:13.188Z,102632.22
2022-12-31T12:57:34.487Z,102642.47
2022-12-31T13:01:01.673Z,102633.50
2022-12-31T13:04:35.214Z,102643.91
2022-12-31T13:07:50.090Z,102633.31
2022-12-31T13:11:01.833Z,102627.44
2022-12-31T13:14:28.311Z,102630.28
2022-12-31T13:18:01.252Z,102615.72
2022-12-31T13:21:42.021Z,102620.63
2022-12-31T13:25:29.021Z,102623.66
2022-12-31T13:28:35.983Z,102624.84
2022-12-31T13:31:43.489Z,102629.13
2022-12-31T13:34:55.840Z,102621.28
2022-12-31T13:38:12.267Z,102624.41
2022-12-31T13:41:19.613Z,102627.16
2022-12-31T13:44:45.192Z,102633.16
2022-12-31T13:47:56.952Z,102633.31
2022-12-31T13:51:19.151Z,102633.16
2022-12-31T13:54:41.701Z,102639.66
2022-12-31T13:57:53.101Z,102650.19
2022-12-31T14:01:33.656Z,102635.81
2022-12-31T14:05:03.504Z,102644.38
2022-12-31T14:08:10.191Z,102648.78
2022-12-31T14:11:55.165Z,102642.81
2022-12-31T14:15:11.801Z,102657.91
2022-12-31T14:18:41.437Z,102659.66
2022-12-31T14:22:07.127Z,102664.53
2022-12-31T14:25:25.569Z,102673.19
2022-12-31T14:28:38.340Z,102683.69
2022-12-31T14:31:49.105Z,102684.88
2022-12-31T14:35:19.113Z,102685.34
2022-12-31T14:38:46.229Z,102690.19
2022-12-31T14:42:17.503Z,102691.22
2022-12-31T14:45:50.241Z,102695.53
2022-12-31T14:49:02.984Z,102694.63
2022-12-31T14:52:15.975Z,102693.06
2022-12-31T14:55:25.584Z,102699.50
2022-12-31T14:58:39.765Z,102697.84
2022-12-31T15:01:45.784Z,102697.03
2022-12-31T15:04:51.193Z,102701.63
2022-12-31T15:08:10.456Z,102711.13
2022-12-31T15:11:25.254Z,102717.81
2022-12-31T15:14:55.853Z,102727.38
2022-12-31T15:18:42.819Z,102715.72
2022-12-31T15:21:55.153Z,102713.84
2022-12-31T15:25:01.259Z,102712.56
2022-12-31T15:28:26.635Z,102713.38
2022-12-31T15:31:36.999Z,102716.06
2022-12-31T15:34:42.566Z,102716.06
2022-12-31T15:38:11.205Z,102715.88
2022-12-31T15:41:19.120Z,102725.34
2022-12-31T15:44:33.393Z,102724.81
2022-12-31T15:47:46.519Z,102730.59
2022-12-31T15:50:54.933Z,102741.91
2022-12-31T15:54:02.810Z,102740.81
2022-12-31T15:57:17.007Z,102744.22
2022-12-31T16:00:24.046Z,102756.16
2022-12-31T16:03:31.404Z,102752.97
2022-12-31T16:06:38.883Z,102758.63
2022-12-31T16:09:50.074Z,102763.78
2022-12-31T16:12:58.166Z,102760.22
2022-12-31T16:16:19.642Z,102769.31
2022-12-31T16:19:36.515Z,102777.97
2022-12-31T16:22:41.681Z,102767.09
2022-12-31T16:25:47.255Z,102772.22
2022-12-31T16:28:52.642Z,102773.88
2022-12-31T16:31:58.260Z,102787.41
2022-12-31T16:35:08.393Z,102789.19
2022-12-31T16:38:19.223Z,102785.50
2022-12-31T16:41:24.623Z,102788.81
2022-12-31T16:44:30.982Z,102783.84
2022-12-31T16:47:40.336Z,102784.66
2022-12-31T16:50:53.914Z,102780.53
2022-12-31T16:54:01.768Z,102786.03
2022-12-31T16:57:11.184Z,102787.31
2022-12-31T17:00:19.246Z,102801.75
2022-12-31T17:03:28.051Z,102796.78
2022-12-31T17:06:33.650Z,102795.94
2022-12-31T17:09:39.929Z,102802.38
2022-12-31T17:16:21.990Z,102807.25
2022-12-31T17:19:58.368Z,102817.28
2022-12-31T17:23:09.409Z,102820.78
2022-12-31T17:26:32.670Z,102823.56
2022-12-31T17:29:38.142Z,102811.22
2022-12-31T17:32:45.680Z,102819.59
2022-12-31T17:36:15.715Z,102821.50
2022-12-31T17:39:23.837Z,102824.00
2022-12-31T17:42:34.794Z,102838.97
2022-12-31T17:45:43.228Z,102842.94
2022-12-31T17:48:53.261Z,102840.16
2022-12-31T17:51:58.874Z,102844.03
2022-12-31T17:55:04.169Z,102845.94
2022-12-31T17:58:18.931Z,102839.22
2022-12-31T18:01:24.411Z,102848.28
2022-12-31T18:04:29.991Z,102844.81
2022-12-31T18:07:34.965Z,102844.81
2022-12-31T18:10:43.339Z,102841.25
2022-12-31T18:13:49.174Z,102839.28
2022-12-31T18:16:54.325Z,102828.31
2022-12-31T18:20:07.088Z,102830.69
2022-12-31T18:23:20.395Z,102833.59
2022-12-31T18:26:27.501Z,102830.22
2022-12-31T18:29:32.845Z,102824.72
2022-12-31T18:32:40.187Z,102828.03
2022-12-31T18:39:11.064Z,102839.72
2022-12-31T18:42:18.903Z,102834.00
2022-12-31T18:45:25.106Z,102845.56
2022-12-31T18:48:30.355Z,102853.09
2022-12-31T18:51:36.306Z,102848.09
2022-12-31T18:54:49.841Z,102849.66
2022-12-31T18:57:55.691Z,102851.66
2022-12-31T19:01:00.942Z,102853.50
2022-12-31T19:04:19.930Z,102857.38
2022-12-31T19:07:28.127Z,102859.94
2022-12-31T19:10:34.587Z,102858.94
2022-12-31T19:13:40.086Z,102866.69
2022-12-31T19:16:45.939Z,102867.72
2022-12-31T19:19:51.127Z,102868.72
2022-12-31T19:22:57.515Z,102870.06
2022-12-31T19:26:02.765Z,102865.38
2022-12-31T19:29:22.666Z,102873.03
2022-12-31T19:32:27.826Z,102866.69
2022-12-31T19:35:33.127Z,102876.06
2022-12-31T19:38:38.405Z,102875.19
2022-12-31T19:41:44.245Z,102875.53
2022-12-31T19:44:49.598Z,102879.38
2022-12-31T19:47:56.308Z,102886.69
2022-12-31T19:51:01.590Z,102900.03
2022-12-31T19:54:07.066Z,102902.50
2022-12-31T19:57:12.447Z,102900.34
2022-12-31T20:00:19.088Z,102908.19
2022-12-31T20:03:25.022Z,102913.16
2022-12-31T20:06:30.530Z,102912.34
2022-12-31T20:09:36.413Z,102918.03
2022-12-31T20:12:44.624Z,102918.22
2022-12-31T20:15:50.187Z,102909.25
2022-12-31T20:18:55.872Z,102908.78
2022-12-31T20:22:01.760Z,102910.03
2022-12-31T20:25:07.172Z,102912.38
2022-12-31T20:28:12.747Z,102921.25
2022-12-31T20:31:21.752Z,102908.59
2022-12-31T20:34:27.601Z,102909.47
2022-12-31T20:37:32.484Z,102914.25
2022-12-31T20:40:44.599Z,102907.25
2022-12-31T20:43:52.419Z,102908.78
2022-12-31T20:46:57.892Z,102913.41
2022-12-31T20:50:12.265Z,102920.03
2022-12-31T20:53:18.809Z,102920.34
2022-12-31T20:56:26.705Z,102916.72
2022-12-31T20:59:31.935Z,102911.94
2022-12-31T21:02:42.772Z,102912.09
2022-12-31T21:05:54.470Z,102912.75
2022-12-31T21:09:02.018Z,102909.38
2022-12-31T21:12:25.775Z,102914.00
2022-12-31T21:15:31.023Z,102914.28
2022-12-31T21:18:36.435Z,102918.13
2022-12-31T21:21:42.712Z,102916.22
2022-12-31T21:24:48.412Z,102912.63
2022-12-31T21:27:53.983Z,102905.22
2022-12-31T21:31:01.742Z,102898.88
2022-12-31T21:34:06.695Z,102907.53
2022-12-31T21:37:11.965Z,102908.06
2022-12-31T21:40:18.120Z,102904.13
2022-12-31T21:43:23.948Z,102906.50
2022-12-31T21:46:30.045Z,102908.72
2022-12-31T21:49:35.647Z,102909.59
2022-12-31T21:52:41.604Z,102909.47
2022-12-31T21:56:05.308Z,102906.28
2022-12-31T21:59:29.218Z,102908.13
2022-12-31T22:03:00.012Z,102908.22
2022-12-31T22:06:12.350Z,102906.78
2022-12-31T22:09:17.664Z,102905.31
2022-12-31T22:12:22.938Z,102904.13
2022-12-31T22:15:28.202Z,102917.13
2022-12-31T22:18:38.942Z,102919.31
2022-12-31T22:21:44.492Z,102914.28
2022-12-31T22:24:49.978Z,102913.69
2022-12-31T22:28:36.029Z,102912.31
2022-12-31T22:31:26.784Z,102909.25
2022-12-31T22:34:32.588Z,102900.81
2022-12-31T22:41:03.367Z,102907.88
2022-12-31T22:44:08.903Z,102904.44
2022-12-31T22:47:14.083Z,102916.84
2022-12-31T22:50:19.517Z,102906.34
2022-12-31T22:53:25.211Z,102909.13
2022-12-31T22:56:30.528Z,102899.16
2022-12-31T22:59:36.208Z,102895.47
2022-12-31T23:02:42.415Z,102905.19
2022-12-31T23:05:52.739Z,102892.03
2022-12-31T23:09:16.144Z,102893.94
2022-12-31T23:12:22.279Z,102892.66
2022-12-31T23:15:46.177Z,102894.31
2022-12-31T23:19:10.072Z,102891.69
2022-12-31T23:22:33.966Z,102887.47
2022-12-31T23:25:45.249Z,102882.69
2022-12-31T23:28:50.866Z,102886.47
2022-12-31T23:31:56.340Z,102883.78
2022-12-31T23:35:07.774Z,102878.19
2022-12-31T23:38:17.732Z,102882.22
2022-12-31T23:41:23.499Z,102878.19
2022-12-31T23:44:29.219Z,102877.69
2022-12-31T23:47:35.967Z,102868.31
2022-12-31T23:50:41.521Z,102871.31
2022-12-31T23:53:47.365Z,102861.16
2022-12-31T23:56:53.156Z,102865.34
2022-12-31T23:59:59.006Z,102861.91
